BAW4E KLAX-EGLL
Flight info
| Callsign | BAW4E |
|---|---|
| Flight time | N/A |
| Altitude | 35000 |
| Route | ORCKA5 LAS J146 DVC DCT SNY DCT GILTE DCT HML/N0489F370 DCT YRL DCT 55N090W 60N080W DCT BEPEG/M084F370 DCT EPMAN DCT 67N050W/M085F390 67N040W 66N030W 64N020W DCT BALIX/N0480F390 DCT NINEX DCT AKOMU DCT VAMEB DCT NUGRA |
| Aircraft | A388/J-SADE2E3FGHIJ3J4J5M1RWXY/LB1D1 |
Departure
| Time | 2026-04-24 03:34 |
|---|---|
| Airport | Los Angeles International Airport (KLAX) |
Arrival
| Time | N/A |
|---|---|
| Airport | London Heathrow Airport (EGLL) |
| Time | Latitude | Longitude | Altitude | Speed | Heading |
|---|---|---|---|---|---|
| 2026-04-24 02:52 | 33.94176 | -118.41104 | 100 ft | 0 kts | 82° |
| 2026-04-24 03:21 | 33.94176 | -118.41108 | 100 ft | 3 kts | 83° |
| 2026-04-24 03:21 | 33.94173 | -118.41139 | 98 ft | 4 kts | 83° |
| 2026-04-24 03:21 | 33.94170 | -118.41172 | 101 ft | 4 kts | 83° |
| 2026-04-24 03:21 | 33.94167 | -118.41191 | 99 ft | 3 kts | 46° |
| 2026-04-24 03:22 | 33.94147 | -118.41205 | 99 ft | 4 kts | 355° |
| 2026-04-24 03:22 | 33.94121 | -118.41199 | 99 ft | 3 kts | 352° |
| 2026-04-24 03:22 | 33.94115 | -118.41198 | 99 ft | 0 kts | 353° |
| 2026-04-24 03:25 | 33.94118 | -118.41198 | 100 ft | 0 kts | 353° |
| 2026-04-24 03:26 | 33.94121 | -118.41199 | 100 ft | 2 kts | 353° |
| 2026-04-24 03:26 | 33.94151 | -118.41203 | 100 ft | 7 kts | 353° |
| 2026-04-24 03:27 | 33.94206 | -118.41211 | 100 ft | 10 kts | 353° |
| 2026-04-24 03:27 | 33.94263 | -118.41220 | 101 ft | 8 kts | 353° |
| 2026-04-24 03:27 | 33.94332 | -118.41230 | 102 ft | 11 kts | 353° |
| 2026-04-24 03:27 | 33.94420 | -118.41242 | 101 ft | 14 kts | 353° |
| 2026-04-24 03:28 | 33.94459 | -118.41248 | 100 ft | 0 kts | 353° |
| 2026-04-24 03:28 | 33.94467 | -118.41249 | 101 ft | 3 kts | 353° |
| 2026-04-24 03:28 | 33.94520 | -118.41258 | 101 ft | 10 kts | 352° |
| 2026-04-24 03:29 | 33.94598 | -118.41270 | 101 ft | 13 kts | 352° |
| 2026-04-24 03:29 | 33.94692 | -118.41285 | 102 ft | 15 kts | 353° |
| 2026-04-24 03:29 | 33.94779 | -118.41256 | 106 ft | 13 kts | 52° |
| 2026-04-24 03:29 | 33.94807 | -118.41148 | 106 ft | 15 kts | 82° |
| 2026-04-24 03:30 | 33.94821 | -118.41013 | 106 ft | 18 kts | 83° |
| 2026-04-24 03:30 | 33.94835 | -118.40871 | 105 ft | 18 kts | 83° |
| 2026-04-24 03:30 | 33.94850 | -118.40713 | 105 ft | 20 kts | 83° |
| 2026-04-24 03:30 | 33.94869 | -118.40535 | 105 ft | 22 kts | 82° |
| 2026-04-24 03:31 | 33.94889 | -118.40360 | 107 ft | 14 kts | 82° |
| 2026-04-24 03:31 | 33.94899 | -118.40269 | 106 ft | 12 kts | 82° |
| 2026-04-24 03:31 | 33.94911 | -118.40152 | 105 ft | 16 kts | 84° |
| 2026-04-24 03:31 | 33.94924 | -118.40006 | 104 ft | 19 kts | 83° |
| 2026-04-24 03:32 | 33.94938 | -118.39948 | 107 ft | 10 kts | 56° |
| 2026-04-24 03:32 | 33.94992 | -118.39918 | 110 ft | 6 kts | 347° |
| 2026-04-24 03:32 | 33.95032 | -118.39959 | 113 ft | 9 kts | 288° |
| 2026-04-24 03:32 | 33.95035 | -118.40002 | 110 ft | 0 kts | 268° |
| 2026-04-24 03:33 | 33.95020 | -118.40185 | 111 ft | 57 kts | 261° |
| 2026-04-24 03:33 | 33.94942 | -118.40963 | 112 ft | 126 kts | 262° |
| 2026-04-24 03:33 | 33.94803 | -118.42201 | 123 ft | 167 kts | 261° |
| 2026-04-24 03:33 | 33.94661 | -118.43632 | 571 ft | 171 kts | 262° |
| 2026-04-24 03:34 | 33.94516 | -118.45041 | 1178 ft | 168 kts | 262° |
| 2026-04-24 03:34 | 33.94371 | -118.46439 | 1743 ft | 169 kts | 263° |
| 2026-04-24 03:34 | 33.94220 | -118.47917 | 2051 ft | 186 kts | 264° |
| 2026-04-24 03:34 | 33.94018 | -118.49516 | 2175 ft | 203 kts | 258° |
| 2026-04-24 03:35 | 33.93498 | -118.51204 | 2427 ft | 225 kts | 242° |
| 2026-04-24 03:35 | 33.92423 | -118.52664 | 2715 ft | 249 kts | 221° |
| 2026-04-24 03:35 | 33.91055 | -118.54043 | 3145 ft | 262 kts | 221° |
| 2026-04-24 03:35 | 33.89660 | -118.55461 | 3867 ft | 263 kts | 221° |
| 2026-04-24 03:36 | 33.88242 | -118.56917 | 4542 ft | 268 kts | 221° |
| 2026-04-24 03:36 | 33.86818 | -118.58405 | 5205 ft | 272 kts | 221° |
| 2026-04-24 03:36 | 33.85385 | -118.59916 | 5863 ft | 277 kts | 221° |
| 2026-04-24 03:36 | 33.83775 | -118.61183 | 6490 ft | 280 kts | 199° |
| 2026-04-24 03:37 | 33.81853 | -118.61492 | 7185 ft | 282 kts | 174° |
| 2026-04-24 03:37 | 33.79984 | -118.60756 | 7812 ft | 288 kts | 149° |
| 2026-04-24 03:37 | 33.78532 | -118.59095 | 8436 ft | 293 kts | 123° |
| 2026-04-24 03:37 | 33.77784 | -118.56847 | 9044 ft | 299 kts | 99° |
| 2026-04-24 03:38 | 33.77873 | -118.54297 | 9626 ft | 305 kts | 73° |
| 2026-04-24 03:38 | 33.78816 | -118.52025 | 10157 ft | 308 kts | 49° |
| 2026-04-24 03:38 | 33.80427 | -118.50335 | 10361 ft | 321 kts | 26° |
| 2026-04-24 03:38 | 33.82572 | -118.49357 | 10521 ft | 333 kts | 13° |
| 2026-04-24 03:39 | 33.84826 | -118.48556 | 10725 ft | 348 kts | 15° |
| 2026-04-24 03:39 | 33.87128 | -118.47497 | 11253 ft | 353 kts | 20° |
| 2026-04-24 03:39 | 33.89339 | -118.46243 | 11793 ft | 358 kts | 24° |
| 2026-04-24 03:39 | 33.91518 | -118.44783 | 12319 ft | 363 kts | 31° |
| 2026-04-24 03:40 | 33.93461 | -118.42778 | 12869 ft | 371 kts | 44° |
| 2026-04-24 03:40 | 33.95041 | -118.40297 | 13392 ft | 377 kts | 54° |
| 2026-04-24 03:40 | 33.96495 | -118.37649 | 13882 ft | 381 kts | 53° |
| 2026-04-24 03:40 | 33.97991 | -118.34992 | 14351 ft | 384 kts | 53° |
| 2026-04-24 03:41 | 33.99511 | -118.32312 | 14821 ft | 388 kts | 53° |
| 2026-04-24 03:41 | 34.01039 | -118.29620 | 15281 ft | 391 kts | 53° |
| 2026-04-24 03:41 | 34.02587 | -118.26894 | 15724 ft | 395 kts | 53° |
| 2026-04-24 03:41 | 34.04140 | -118.24159 | 16202 ft | 398 kts | 53° |
| 2026-04-24 03:42 | 34.05718 | -118.21376 | 16650 ft | 402 kts | 53° |
| 2026-04-24 03:42 | 34.07296 | -118.18590 | 17088 ft | 405 kts | 52° |
| 2026-04-24 03:42 | 34.08898 | -118.15758 | 17538 ft | 409 kts | 52° |
| 2026-04-24 03:42 | 34.10483 | -118.12955 | 17952 ft | 412 kts | 52° |
| 2026-04-24 03:43 | 34.12111 | -118.10072 | 18372 ft | 415 kts | 52° |
| 2026-04-24 03:43 | 34.13745 | -118.07176 | 18761 ft | 418 kts | 52° |
| 2026-04-24 03:43 | 34.15380 | -118.04275 | 19163 ft | 420 kts | 52° |
| 2026-04-24 03:43 | 34.17000 | -118.01398 | 19527 ft | 422 kts | 52° |
| 2026-04-24 03:44 | 34.18660 | -117.98448 | 19879 ft | 426 kts | 52° |
| 2026-04-24 03:44 | 34.20328 | -117.95483 | 20274 ft | 428 kts | 53° |
| 2026-04-24 03:44 | 34.22000 | -117.92507 | 20681 ft | 429 kts | 52° |
| 2026-04-24 03:44 | 34.23679 | -117.89514 | 21065 ft | 431 kts | 52° |
| 2026-04-24 03:45 | 34.25375 | -117.86493 | 21400 ft | 434 kts | 53° |
| 2026-04-24 03:45 | 34.27070 | -117.83468 | 21776 ft | 436 kts | 52° |
| 2026-04-24 03:45 | 34.28779 | -117.80415 | 22132 ft | 439 kts | 53° |
| 2026-04-24 03:45 | 34.30473 | -117.77387 | 22474 ft | 441 kts | 53° |
| 2026-04-24 03:46 | 34.32192 | -117.74312 | 22847 ft | 442 kts | 53° |
| 2026-04-24 03:46 | 34.33926 | -117.71209 | 23079 ft | 446 kts | 53° |
| 2026-04-24 03:46 | 34.35663 | -117.68100 | 23512 ft | 447 kts | 52° |
| 2026-04-24 03:46 | 34.37473 | -117.65018 | 23771 ft | 450 kts | 51° |
| 2026-04-24 03:47 | 34.39326 | -117.61957 | 24112 ft | 451 kts | 50° |
| 2026-04-24 03:47 | 34.41192 | -117.58878 | 24407 ft | 453 kts | 50° |
| 2026-04-24 03:47 | 34.43053 | -117.55787 | 24725 ft | 455 kts | 50° |
| 2026-04-24 03:47 | 34.44923 | -117.52665 | 25027 ft | 458 kts | 51° |
| 2026-04-24 03:48 | 34.46792 | -117.49530 | 25359 ft | 460 kts | 51° |
| 2026-04-24 03:48 | 34.48665 | -117.46383 | 25685 ft | 462 kts | 51° |
| 2026-04-24 03:48 | 34.50548 | -117.43215 | 26021 ft | 464 kts | 51° |
| 2026-04-24 03:48 | 34.52408 | -117.40082 | 26364 ft | 466 kts | 51° |
| 2026-04-24 03:49 | 34.54338 | -117.36829 | 26695 ft | 469 kts | 51° |
| 2026-04-24 03:49 | 34.56244 | -117.33614 | 27044 ft | 472 kts | 51° |
| 2026-04-24 03:49 | 34.58140 | -117.30413 | 27411 ft | 474 kts | 51° |
| 2026-04-24 03:49 | 34.60064 | -117.27164 | 27745 ft | 477 kts | 50° |
| 2026-04-24 03:50 | 34.62007 | -117.23877 | 28106 ft | 479 kts | 50° |
| 2026-04-24 03:50 | 34.63954 | -117.20581 | 28437 ft | 482 kts | 51° |
| 2026-04-24 03:50 | 34.65908 | -117.17270 | 28803 ft | 484 kts | 50° |
| 2026-04-24 03:50 | 34.67880 | -117.13926 | 29150 ft | 487 kts | 50° |
| 2026-04-24 03:51 | 34.69852 | -117.10577 | 29488 ft | 490 kts | 50° |
| 2026-04-24 03:51 | 34.71846 | -117.07190 | 29838 ft | 493 kts | 50° |
| 2026-04-24 03:51 | 34.73842 | -117.03795 | 30153 ft | 496 kts | 51° |
| 2026-04-24 03:51 | 34.75848 | -117.00379 | 30457 ft | 498 kts | 51° |
| 2026-04-24 03:52 | 34.77871 | -116.96933 | 30772 ft | 501 kts | 51° |
| 2026-04-24 03:52 | 34.79899 | -116.93473 | 31087 ft | 504 kts | 51° |
| 2026-04-24 03:52 | 34.81942 | -116.89983 | 31390 ft | 507 kts | 51° |
| 2026-04-24 03:52 | 34.83992 | -116.86480 | 31694 ft | 509 kts | 51° |
| 2026-04-24 03:53 | 34.86044 | -116.82969 | 31994 ft | 512 kts | 51° |
| 2026-04-24 03:53 | 34.88097 | -116.79453 | 32257 ft | 515 kts | 51° |
| 2026-04-24 03:53 | 34.90203 | -116.75843 | 32545 ft | 518 kts | 51° |
| 2026-04-24 03:53 | 34.92348 | -116.72333 | 32808 ft | 518 kts | 46° |
| 2026-04-24 03:54 | 34.94760 | -116.69122 | 33083 ft | 518 kts | 43° |
| 2026-04-24 03:54 | 34.97226 | -116.65904 | 33358 ft | 521 kts | 43° |
| 2026-04-24 03:54 | 34.99705 | -116.62647 | 33637 ft | 524 kts | 43° |
| 2026-04-24 03:54 | 35.02182 | -116.59381 | 33908 ft | 527 kts | 43° |
| 2026-04-24 03:55 | 35.04682 | -116.56082 | 34161 ft | 530 kts | 43° |
| 2026-04-24 03:55 | 35.07191 | -116.52766 | 34417 ft | 532 kts | 43° |
| 2026-04-24 03:55 | 35.09707 | -116.49440 | 34699 ft | 534 kts | 43° |
| 2026-04-24 03:55 | 35.12230 | -116.46102 | 34955 ft | 536 kts | 43° |
| 2026-04-24 03:56 | 35.14769 | -116.42742 | 34942 ft | 538 kts | 43° |
| 2026-04-24 03:56 | 35.19830 | -116.36027 | 34948 ft | 537 kts | 43° |
| 2026-04-24 03:57 | 35.24896 | -116.29297 | 34941 ft | 538 kts | 43° |
| 2026-04-24 03:57 | 35.29963 | -116.22551 | 34938 ft | 538 kts | 43° |
| 2026-04-24 03:58 | 35.35006 | -116.15822 | 34945 ft | 539 kts | 43° |
| 2026-04-24 03:58 | 35.40072 | -116.09051 | 34949 ft | 539 kts | 43° |
| 2026-04-24 03:59 | 35.45143 | -116.02259 | 34961 ft | 540 kts | 43° |
| 2026-04-24 03:59 | 35.50206 | -115.95465 | 34965 ft | 540 kts | 43° |
| 2026-04-24 04:00 | 35.55275 | -115.88647 | 34986 ft | 540 kts | 43° |
| 2026-04-24 04:00 | 35.60346 | -115.81815 | 34969 ft | 540 kts | 43° |
| 2026-04-24 04:01 | 35.65398 | -115.74980 | 34974 ft | 541 kts | 44° |
| 2026-04-24 04:01 | 35.70395 | -115.68099 | 35029 ft | 543 kts | 44° |
| 2026-04-24 04:01 | 35.72911 | -115.64628 | 35383 ft | 543 kts | 44° |
| 2026-04-24 04:02 | 35.75431 | -115.61150 | 35725 ft | 543 kts | 44° |
| 2026-04-24 04:02 | 35.77945 | -115.57680 | 36071 ft | 543 kts | 44° |
| 2026-04-24 04:02 | 35.80457 | -115.54211 | 36435 ft | 543 kts | 44° |
| 2026-04-24 04:02 | 35.82972 | -115.50735 | 36800 ft | 542 kts | 44° |
| 2026-04-24 04:03 | 35.85475 | -115.47273 | 36977 ft | 546 kts | 44° |
| 2026-04-24 04:03 | 35.90457 | -115.40368 | 36985 ft | 537 kts | 43° |
| 2026-04-24 04:04 | 35.95437 | -115.33459 | 36984 ft | 542 kts | 43° |
| 2026-04-24 04:04 | 36.00429 | -115.26513 | 36983 ft | 541 kts | 43° |
| 2026-04-24 04:05 | 36.05342 | -115.19457 | 36957 ft | 545 kts | 49° |
| 2026-04-24 04:05 | 36.09277 | -115.11375 | 36947 ft | 552 kts | 62° |
| 2026-04-24 04:06 | 36.12100 | -115.02531 | 36947 ft | 553 kts | 66° |
| 2026-04-24 04:06 | 36.14857 | -114.93639 | 36865 ft | 553 kts | 66° |
| 2026-04-24 04:07 | 36.17604 | -114.84725 | 36854 ft | 554 kts | 67° |
| 2026-04-24 04:07 | 36.20336 | -114.75812 | 36856 ft | 555 kts | 67° |
| 2026-04-24 04:08 | 36.23078 | -114.66850 | 36833 ft | 557 kts | 67° |
| 2026-04-24 04:08 | 36.25817 | -114.57875 | 36842 ft | 558 kts | 67° |
| 2026-04-24 04:09 | 36.28554 | -114.48870 | 36833 ft | 559 kts | 67° |
| 2026-04-24 04:09 | 36.31271 | -114.39905 | 36850 ft | 559 kts | 67° |
| 2026-04-24 04:10 | 36.34002 | -114.30860 | 36860 ft | 560 kts | 67° |
| 2026-04-24 04:10 | 36.36727 | -114.21810 | 36866 ft | 560 kts | 67° |
| 2026-04-24 04:11 | 36.40818 | -114.08165 | 36875 ft | 561 kts | 67° |
| 2026-04-24 04:11 | 36.43527 | -113.99096 | 36881 ft | 561 kts | 67° |
| 2026-04-24 04:12 | 36.46232 | -113.90007 | 36887 ft | 560 kts | 67° |
| 2026-04-24 04:12 | 36.48912 | -113.80978 | 36891 ft | 560 kts | 67° |
| 2026-04-24 04:13 | 36.51602 | -113.71882 | 36892 ft | 561 kts | 67° |
| 2026-04-24 04:13 | 36.53856 | -113.64240 | 36908 ft | 561 kts | 67° |
| 2026-04-24 04:14 | 36.56518 | -113.55182 | 36901 ft | 561 kts | 67° |
| 2026-04-24 04:14 | 36.59193 | -113.46053 | 36909 ft | 562 kts | 67° |
| 2026-04-24 04:15 | 36.61865 | -113.36907 | 36917 ft | 562 kts | 67° |
| 2026-04-24 04:15 | 36.64530 | -113.27751 | 36920 ft | 562 kts | 68° |
| 2026-04-24 04:16 | 36.67187 | -113.18572 | 36945 ft | 563 kts | 68° |
| 2026-04-24 04:16 | 36.69824 | -113.09437 | 36972 ft | 564 kts | 68° |
| 2026-04-24 04:17 | 36.72477 | -113.00219 | 36991 ft | 565 kts | 68° |
| 2026-04-24 04:17 | 36.75123 | -112.90991 | 36998 ft | 565 kts | 68° |
| 2026-04-24 04:18 | 36.77769 | -112.81732 | 36980 ft | 566 kts | 68° |
| 2026-04-24 04:18 | 36.80406 | -112.72478 | 36970 ft | 566 kts | 68° |
| 2026-04-24 04:19 | 36.83010 | -112.63305 | 36938 ft | 566 kts | 68° |
| 2026-04-24 04:19 | 36.85634 | -112.54031 | 36928 ft | 567 kts | 68° |
| 2026-04-24 04:20 | 36.88256 | -112.44731 | 36922 ft | 567 kts | 68° |